Thalassa — FNFP — position and weather

sailwx.info

Track history (hours):
 
Tides and Currents Weather Stations Pressure Air Temp Water Temp Dewpoint Dewpoint Depression Visibility Wind Speed Wind Dir Waves Ship Positions

Oceanographic research ship Thalassa (France & Spain)

Detailed information on ship capabilities available from University of Delaware's Ocean Information Center.

Last reported at 2020-Jan-20 21:00 UTC. Time now 2020-Jan-20 23:44 UTC.
Position N 52°13' E 003°35'.

Length 74 m; beam 15 m.

Type: Other ship. MMSI: 227297000.

Date/timePositionNaut miles runAvg speedWind from/ knotsBaromVisibWave heightAir tempDewpointWater temp
2020-Jan-20 21:00N 52°13' E 003°35'18 7.3
2020-Jan-20 18:31N 52°08' E 004°04'8 5.0
2020-Jan-20 16:59N 52°06' E 004°16'0 0.0
2020-Jan-20 14:56N 52°06' E 004°16'0 0.0
2020-Jan-20 13:29N 52°06' E 004°16'0 0.0
2020-Jan-20 11:56N 52°06' E 004°16'0 0.0
2020-Jan-20 10:59N 52°06' E 004°16'0 0.0
2020-Jan-20 09:29N 52°06' E 004°16'0 0.0
2020-Jan-20 08:59N 52°06' E 004°16'0 0.0
2020-Jan-20 06:59N 52°06' E 004°16'0 0.0
2020-Jan-20 05:59N 52°06' E 004°16'0 0.0
2020-Jan-20 05:29N 52°06' E 004°16'0 0.0
2020-Jan-20 04:59N 52°06' E 004°16'0 0.0
2020-Jan-20 03:29N 52°06' E 004°16'0 0.0
2020-Jan-20 02:29N 52°06' E 004°16'0 0.0
2020-Jan-20 01:29N 52°06' E 004°16'0 0.0
2020-Jan-20 00:59N 52°06' E 004°16'0 0.0
2020-Jan-19 23:29N 52°06' E 004°16'0 0.0
2020-Jan-19 20:56N 52°06' E 004°16'0 0.0
2020-Jan-19 18:56N 52°06' E 004°16'0 0.0
2020-Jan-19 18:29N 52°06' E 004°16'0 0.0
2020-Jan-19 16:26N 52°06' E 004°16'8 2.4
2020-Jan-19 13:00N 52°14' E 004°19'8 3.9
2020-Jan-19 11:00N 52°21' E 004°24'5 9.9
2020-Jan-19 10:30N 52°24' E 004°17'5 9.5
2020-Jan-19 10:00N 52°28' E 004°12'14 9.2
2020-Jan-19 08:31N 52°40' E 004°03'3 1.4
2020-Jan-19 06:30N 52°43' E 004°01'5 2.5
2020-Jan-19 04:30N 52°40' E 004°08'3 2.5
2020-Jan-19 03:30N 52°39' E 004°12'26 2.1
2020-Jan-18 15:24N 52°46' E 003°31'2 3.1
2020-Jan-18 14:43N 52°44' E 003°30'121 2.4
2020-Jan-16 12:09N 53°54' E 006°15'63 6.7
2020-Jan-16 02:38N 53°22' E 004°43'23 6.7
2020-Jan-15 23:08N 53°01' E 004°24'711.0
2020-Jan-15 22:30N 52°55' E 004°19'16 6.6
2020-Jan-15 20:00N 52°39' E 004°12'2 3.8
2020-Jan-15 19:30N 52°38' E 004°11'13 8.7
2020-Jan-15 18:00N 52°25' E 004°05'26 6.5
2020-Jan-15 14:00N 52°00' E 003°52'1610.3
2020-Jan-15 12:30N 51°56' E 003°28'6 4.6
2020-Jan-15 11:11N 51°50' E 003°29'10 5.1
2020-Jan-15 09:16N 51°43' E 003°18'911.2
2020-Jan-15 08:30N 51°36' E 003°10'3 0.8
2020-Jan-15 05:00N 51°36' E 003°14'1 0.5
2020-Jan-15 03:30N 51°35' E 003°15'1 0.5
2020-Jan-15 02:24N 51°35' E 003°14'1 1.2
2020-Jan-15 01:26N 51°34' E 003°14'1 0.9
2020-Jan-14 23:59N 51°35' E 003°14'1 0.2
2020-Jan-14 21:27N 51°35' E 003°14'0 0.6
2020-Jan-14 21:00N 51°35' E 003°14'3 2.0
2020-Jan-14 19:30N 51°34' E 003°10'8 7.8
2020-Jan-14 18:30N 51°29' E 003°00'5 9.9
2020-Jan-14 18:00N 51°30' E 002°52'23 7.7
2020-Jan-14 15:00N 51°35' E 002°16'812.1
2020-Jan-14 14:22N 51°28' E 002°12'7 8.8
2020-Jan-14 13:30N 51°21' E 002°08'8 5.4
2020-Jan-14 12:00N 51°13' E 002°03'1 2.4
2020-Jan-14 11:30N 51°12' E 002°02'4 7.8
2020-Jan-14 11:00N 51°13' E 002°08'6 6.0
2020-Jan-14 10:00N 51°07' E 002°07'11 4.6
2020-Jan-14 07:30N 51°02' E 001°51'2 1.4
2020-Jan-14 06:00N 51°04' E 001°53'1 1.2
2020-Jan-14 05:30N 51°04' E 001°54'0 0.1
2020-Jan-14 01:00N 51°04' E 001°53'1 0.3
2020-Jan-13 20:30N 51°04' E 001°51'5 2.2
2020-Jan-13 18:00N 51°01' E 001°44'1111.1
2020-Jan-13 17:00N 50°55' E 001°29'7 1.3
2020-Jan-13 12:00N 50°51' E 001°20'4 4.0
2020-Jan-13 11:00N 50°47' E 001°18'14 4.5
2020-Jan-13 07:58N 50°34' E 001°26'8 1.3
2020-Jan-13 01:56N 50°33' E 001°14'12 2.1
2020-Jan-12 20:11N 50°25' E 000°59'14 5.3
2020-Jan-12 17:30N 50°36' E 000°44'4 3.6
2020-Jan-12 16:15N 50°31' E 000°43'1 2.5
2020-Jan-12 15:59N 50°31' E 000°42'13 1.9
2020-Jan-12 09:00N 50°32' E 000°22'0 1.0
2020-Jan-12 08:30N 50°33' E 000°22'2 1.4
2020-Jan-12 06:46N 50°33' E 000°26'20 2.5
2020-Jan-11 22:47N 50°15' E 000°12'0 0.5
2020-Jan-11 22:20N 50°15' E 000°12'911.3
2020-Jan-11 21:30N 50°06' E 000°11'611.7
2020-Jan-11 21:01N 50°00' E 000°11'21 5.2
2020-Jan-11 17:00N 49°40' E 000°05'2 1.9
2020-Jan-11 16:00N 49°38' E 000°04'25 5.1
2020-Jan-11 11:00N 49°56' E 000°32'11 2.3
2020-Jan-11 06:29N 50°05' E 000°39'13 4.4
2020-Jan-11 03:30N 50°05' E 000°19'4 6.5
2020-Jan-11 02:52N 50°01' E 000°22'410.6
2020-Jan-11 02:30N 49°58' E 000°24'6 5.7
2020-Jan-11 01:30N 49°53' E 000°30'  
Track history (hours):
 
Tides and Currents Weather Stations Pressure Air Temp Water Temp Dewpoint Dewpoint Depression Visibility Wind Speed Wind Dir Waves Ship Positions

Oceanographic research ship Thalassa (France & Spain)

Detailed information on ship capabilities available from University of Delaware's Ocean Information Center.

Last reported at 2020-Jan-20 21:00 UTC. Time now 2020-Jan-20 23:44 UTC.
Position N 52°13' E 003°35'.

Length 74 m; beam 15 m.

Type: Other ship. MMSI: 227297000.

Date/timePositionNaut miles runAvg speedWind from/ knotsBaromVisibWave heightAir tempDewpointWater temp
2020-Jan-20 21:00N 52°13' E 003°35'18 7.3
2020-Jan-20 18:31N 52°08' E 004°04'8 5.0
2020-Jan-20 16:59N 52°06' E 004°16'0 0.0
2020-Jan-20 14:56N 52°06' E 004°16'0 0.0
2020-Jan-20 13:29N 52°06' E 004°16'0 0.0
2020-Jan-20 11:56N 52°06' E 004°16'0 0.0
2020-Jan-20 10:59N 52°06' E 004°16'0 0.0
2020-Jan-20 09:29N 52°06' E 004°16'0 0.0
2020-Jan-20 08:59N 52°06' E 004°16'0 0.0
2020-Jan-20 06:59N 52°06' E 004°16'0 0.0
2020-Jan-20 05:59N 52°06' E 004°16'0 0.0
2020-Jan-20 05:29N 52°06' E 004°16'0 0.0
2020-Jan-20 04:59N 52°06' E 004°16'0 0.0
2020-Jan-20 03:29N 52°06' E 004°16'0 0.0
2020-Jan-20 02:29N 52°06' E 004°16'0 0.0
2020-Jan-20 01:29N 52°06' E 004°16'0 0.0
2020-Jan-20 00:59N 52°06' E 004°16'0 0.0
2020-Jan-19 23:29N 52°06' E 004°16'0 0.0
2020-Jan-19 20:56N 52°06' E 004°16'0 0.0
2020-Jan-19 18:56N 52°06' E 004°16'0 0.0
2020-Jan-19 18:29N 52°06' E 004°16'0 0.0
2020-Jan-19 16:26N 52°06' E 004°16'8 2.4
2020-Jan-19 13:00N 52°14' E 004°19'8 3.9
2020-Jan-19 11:00N 52°21' E 004°24'5 9.9
2020-Jan-19 10:30N 52°24' E 004°17'5 9.5
2020-Jan-19 10:00N 52°28' E 004°12'14 9.2
2020-Jan-19 08:31N 52°40' E 004°03'3 1.4
2020-Jan-19 06:30N 52°43' E 004°01'5 2.5
2020-Jan-19 04:30N 52°40' E 004°08'3 2.5
2020-Jan-19 03:30N 52°39' E 004°12'26 2.1
2020-Jan-18 15:24N 52°46' E 003°31'2 3.1
2020-Jan-18 14:43N 52°44' E 003°30'121 2.4
2020-Jan-16 12:09N 53°54' E 006°15'63 6.7
2020-Jan-16 02:38N 53°22' E 004°43'23 6.7
2020-Jan-15 23:08N 53°01' E 004°24'711.0
2020-Jan-15 22:30N 52°55' E 004°19'16 6.6
2020-Jan-15 20:00N 52°39' E 004°12'2 3.8
2020-Jan-15 19:30N 52°38' E 004°11'13 8.7
2020-Jan-15 18:00N 52°25' E 004°05'26 6.5
2020-Jan-15 14:00N 52°00' E 003°52'1610.3
2020-Jan-15 12:30N 51°56' E 003°28'6 4.6
2020-Jan-15 11:11N 51°50' E 003°29'10 5.1
2020-Jan-15 09:16N 51°43' E 003°18'911.2
2020-Jan-15 08:30N 51°36' E 003°10'3 0.8
2020-Jan-15 05:00N 51°36' E 003°14'1 0.5
2020-Jan-15 03:30N 51°35' E 003°15'1 0.5
2020-Jan-15 02:24N 51°35' E 003°14'1 1.2
2020-Jan-15 01:26N 51°34' E 003°14'1 0.9
2020-Jan-14 23:59N 51°35' E 003°14'1 0.2
2020-Jan-14 21:27N 51°35' E 003°14'0 0.6
2020-Jan-14 21:00N 51°35' E 003°14'3 2.0
2020-Jan-14 19:30N 51°34' E 003°10'8 7.8
2020-Jan-14 18:30N 51°29' E 003°00'5 9.9
2020-Jan-14 18:00N 51°30' E 002°52'23 7.7
2020-Jan-14 15:00N 51°35' E 002°16'812.1
2020-Jan-14 14:22N 51°28' E 002°12'7 8.8
2020-Jan-14 13:30N 51°21' E 002°08'8 5.4
2020-Jan-14 12:00N 51°13' E 002°03'1 2.4
2020-Jan-14 11:30N 51°12' E 002°02'4 7.8
2020-Jan-14 11:00N 51°13' E 002°08'6 6.0
2020-Jan-14 10:00N 51°07' E 002°07'11 4.6
2020-Jan-14 07:30N 51°02' E 001°51'2 1.4
2020-Jan-14 06:00N 51°04' E 001°53'1 1.2
2020-Jan-14 05:30N 51°04' E 001°54'0 0.1
2020-Jan-14 01:00N 51°04' E 001°53'1 0.3
2020-Jan-13 20:30N 51°04' E 001°51'5 2.2
2020-Jan-13 18:00N 51°01' E 001°44'1111.1
2020-Jan-13 17:00N 50°55' E 001°29'7 1.3
2020-Jan-13 12:00N 50°51' E 001°20'4 4.0
2020-Jan-13 11:00N 50°47' E 001°18'14 4.5
2020-Jan-13 07:58N 50°34' E 001°26'8 1.3
2020-Jan-13 01:56N 50°33' E 001°14'12 2.1
2020-Jan-12 20:11N 50°25' E 000°59'14 5.3
2020-Jan-12 17:30N 50°36' E 000°44'4 3.6
2020-Jan-12 16:15N 50°31' E 000°43'1 2.5
2020-Jan-12 15:59N 50°31' E 000°42'13 1.9
2020-Jan-12 09:00N 50°32' E 000°22'0 1.0
2020-Jan-12 08:30N 50°33' E 000°22'2 1.4
2020-Jan-12 06:46N 50°33' E 000°26'20 2.5
2020-Jan-11 22:47N 50°15' E 000°12'0 0.5
2020-Jan-11 22:20N 50°15' E 000°12'911.3
2020-Jan-11 21:30N 50°06' E 000°11'611.7
2020-Jan-11 21:01N 50°00' E 000°11'21 5.2
2020-Jan-11 17:00N 49°40' E 000°05'2 1.9
2020-Jan-11 16:00N 49°38' E 000°04'25 5.1
2020-Jan-11 11:00N 49°56' E 000°32'11 2.3
2020-Jan-11 06:29N 50°05' E 000°39'13 4.4
2020-Jan-11 03:30N 50°05' E 000°19'4 6.5
2020-Jan-11 02:52N 50°01' E 000°22'410.6
2020-Jan-11 02:30N 49°58' E 000°24'6 5.7
2020-Jan-11 01:30N 49°53' E 000°30'  

Dump ship's entire track history